Strona główna
METAR-TAF:

METAR-TAF

Lotnisko :

Port lotniczy Poznań-Ławica

Poznań, Polska

Szerokość geograficzna: 52-25N, Długość geograficzna: 016-50E, wysokość: 86 m

Aktualna obserwacja pogody

Raport powstał 36 minut temu, godzina 07:30 UTC
Wiatr 5 kt od południowo-południowy zachód, zmienny między południe i zachodnio-południowy zachód
Temperatura 19°C
Wilgotność 34%
Ciśnienie 1025 hPa
Widzialność 10 km lub więcej
Brak chmur poniżej 1500 m i brak chmur cumulonimbus

METAR: EPPO 190730Z 21005KT 180V250 CAVOK 19/03 Q1025

czas: 10:06 (08:06 UTC)

Prognoza

Raport powstał 2 godziny i 36 minut temu, godzina 05:30 UTC
Prognoza ważna od 19 godzina 06 UTC do 20 godzina 06 UTC
Wiatr 6 kt od południe
Widzialność 10 km lub więcej
Brak chmur poniżej 1500 m i brak chmur cumulonimbus
Stopniowe zmiany
od 20 godzina 03 UTC do 20 godzina 05 UTC
Wiatr 10 kt od zachód

TAF: EPPO 190530Z 1906/2006 17006KT CAVOK BECMG 2003/2005 27010KT

Obserwacja i prognoza pogody dla ponad 4000 lotnisk (raport METAR i TAF).

Dostępne stacje oznaczono żółtymi i czerwonymi punktami na mapie.

Najedź kursorem aby zobaczyć nazwę stacji.

Kliknij aby zobaczyć obserwacje i prognozy pogody.

Aby zmienić mapę: kliknij na zielony przycisk z czarnym krzyżykiem, aby powiększyć; na zielony przycisk z myślnikiem, aby pomniejszyć; na zielone strzałki, aby przejść do map sąsiednich.


METAR-TAF: